• Join FlightAware (Why Join?)
  • Login
  • US Flag 
10:11PM EDT


 

Airport Tracker/Info


-or-


 

Live Flight TrackerFlight Track Log ✈ N118BJ ✈ 22-Jul-2013 ✈ KBHM - KAWM

Flight Track Log - Related Links

Times and Time Zones

All times are in EDT time to prevent confusion due to time zone crossing. See the N118BJ flight status page for this flight to view local times or setup timezone preferences in your user account.

Time Position Orientation Groundspeed Altitude Reporting Facility
EDT Latitude Longitude Course Direction KTS MPH feet Rate Location/Type
03:57PM 33.5683 -86.7514 359° North 79 91 1,100  Level Atlanta Center
03:58PM 33.5869 -86.7519 359° North 76 87 1,800 780 Climbing Atlanta Center
03:59PM 33.6014 -86.7647 324° Northwest 59 68 2,600 780 Climbing Atlanta Center
04:00PM 33.6092 -86.7825 298° West 66 76 3,400 660 Climbing Atlanta Center
04:01PM 33.6192 -86.8028 301° West 64 74 4,000 540 Climbing Atlanta Center
04:02PM 33.6292 -86.8206 304° West 67 77 4,600 540 Climbing Atlanta Center
04:03PM 33.6372 -86.8408 296° West 65 75 5,200 600 Climbing Atlanta Center
04:04PM 33.6472 -86.8561 308° West 62 71 5,800 540 Climbing Atlanta Center
04:05PM 33.6553 -86.8714 302° West 62 71 6,300 540 Climbing Atlanta Center
04:06PM 33.6653 -86.8892 304° West 64 74 6,900 480 Climbing Atlanta Center
04:07PM 33.6711 -86.9067 292° West 62 71 7,300 300 Climbing Atlanta Center
04:08PM 33.6792 -86.9244 299° West 62 71 7,600 300 Climbing Atlanta Center
04:09PM 33.6889 -86.9472 297° West 67 77 8,000 180 Climbing Atlanta Center
04:10PM 33.7050 -86.9753 305° West 92 106 8,000  Level Atlanta Center
04:11PM 33.7125 -87.0056 287° West 102 117 8,000  Level Atlanta Center
04:12PM 33.7222 -87.0358 291° West 96 110 8,000  Level Atlanta Center
04:13PM 33.7319 -87.0661 291° West 95 109 8,000  Level Atlanta Center
04:15PM 33.7653 -87.1264 304° West 102 117 8,000  Level Memphis Center
04:16PM 33.7786 -87.1533 301° West 96 110 8,000  Level Memphis Center
04:17PM 33.7919 -87.1803 301° West 96 110 8,000  Level Memphis Center
04:18PM 33.8050 -87.2050 302° West 96 110 8,000  Level Memphis Center
04:19PM 33.8183 -87.2344 299° West 96 110 8,000  Level Memphis Center
04:20PM 33.8272 -87.2592 293° West 96 110 8,000  Level Memphis Center
04:21PM 33.8383 -87.2861 296° West 96 110 8,000  Level Memphis Center
04:22PM 33.8517 -87.3158 298° West 96 110 8,000  Level Memphis Center
04:23PM 33.8647 -87.3428 300° West 96 110 8,000  Level Memphis Center
04:24PM 33.8758 -87.3725 294° West 96 110 8,000  Level Memphis Center
04:25PM 33.8911 -87.3969 307° West 96 110 8,000  Level Memphis Center
04:26PM 33.9064 -87.4239 304° West 96 110 8,000  Level Memphis Center
04:27PM 33.9175 -87.4511 296° West 96 110 8,000  Level Memphis Center
04:28PM 33.9264 -87.4833 288° West 96 110 8,000  Level Memphis Center
04:29PM 33.9375 -87.5106 296° West 96 110 8,000  Level Memphis Center
04:30PM 33.9528 -87.5375 304° West 91 105 8,000  Level Memphis Center
04:31PM 33.9658 -87.5647 300° West 91 105 8,000  Level Memphis Center
04:32PM 33.9750 -87.5919 292° West 91 105 8,000  Level Memphis Center
04:33PM 33.9881 -87.6192 300° West 91 105 8,000  Level Memphis Center
04:34PM 33.9989 -87.6436 298° West 91 105 8,000  Level Memphis Center
04:35PM 34.0122 -87.6708 301° West 91 105 8,000  Level Memphis Center
04:36PM 34.0231 -87.6981 296° West 91 105 8,000  Level Memphis Center
04:37PM 34.0383 -87.7228 307° West 91 105 8,000  Level Memphis Center
04:38PM 34.0492 -87.7450 300° West 91 105 8,000  Level Memphis Center
04:39PM 34.0603 -87.7747 294° West 96 110 8,000 -60 Level Memphis Center
04:40PM 34.0733 -87.8019 300° West 96 110 7,900 -60 Descending Memphis Center
04:41PM 34.0842 -87.8292 296° West 96 110 7,900  Level Memphis Center
04:42PM 34.0975 -87.8589 298° West 96 110 7,900  Level Memphis Center
04:43PM 34.1106 -87.8861 300° West 96 110 7,900  Level Memphis Center
04:44PM 34.1214 -87.9158 294° West 96 110 7,900  Level Memphis Center
04:45PM 34.1344 -87.9431 300° West 96 110 7,900  Level Memphis Center
04:46PM 34.1497 -87.9728 302° West 96 110 7,900  Level Memphis Center
04:47PM 34.1628 -88.0025 298° West 96 110 7,900  Level Memphis Center
04:48PM 34.1758 -88.0347 296° West 101 116 7,900  Level Memphis Center
04:49PM 34.1889 -88.0622 300° West 101 116 7,900  Level Memphis Center
04:50PM 34.2019 -88.0894 300° West 101 116 7,900  Level Memphis Center
04:51PM 34.2131 -88.1167 296° West 95 109 8,000  Climbing Memphis Center
04:52PM 34.2258 -88.1442 299° West 95 109 8,000  Level Memphis Center
04:53PM 34.2411 -88.1711 304° West 95 109 8,000 -60 Level Memphis Center
04:54PM 34.2542 -88.2036 296° West 95 109 7,900  Descending Memphis Center
04:55PM 34.2672 -88.2333 298° West 95 109 8,000  Climbing Memphis Center
04:56PM 34.2822 -88.2633 301° West 95 109 8,000  Level Memphis Center
04:57PM 34.2931 -88.2906 296° West 95 109 8,000  Level Memphis Center
04:58PM 34.3061 -88.3181 300° West 95 109 8,000  Level Memphis Center
04:59PM 34.3192 -88.3478 298° West 95 109 8,000 -60 Level Memphis Center
05:00PM 34.3281 -88.3778 290° West 95 109 7,900  Descending Memphis Center
05:01PM 34.3408 -88.4053 299° West 95 109 8,000  Climbing Memphis Center
05:02PM 34.3539 -88.4325 300° West 95 109 8,000  Level Memphis Center
05:03PM 34.3647 -88.4600 296° West 95 109 8,000  Level Memphis Center
05:04PM 34.3797 -88.4872 304° West 95 109 8,000 -60 Level Memphis Center
05:05PM 34.3886 -88.5122 293° West 95 109 7,900 -60 Descending Memphis Center
05:06PM 34.4036 -88.5397 303° West 95 109 7,900  Level Memphis Center
05:07PM 34.4144 -88.5697 294° West 95 109 8,000  Climbing Memphis Center
05:08PM 34.4272 -88.5969 300° West 95 109 8,000  Level Memphis Center
05:09PM 34.4381 -88.6269 294° West 95 109 8,000  Level Memphis Center
05:10PM 34.4489 -88.6544 296° West 95 109 8,000  Level Memphis Center
05:11PM 34.4597 -88.6794 298° West 95 109 8,000  Level Memphis Center
05:12PM 34.4725 -88.7069 299° West 95 109 8,000  Level Memphis Center
05:13PM 34.4875 -88.7344 304° West 95 109 8,000  Level Memphis Center
05:14PM 34.4983 -88.7644 294° West 95 109 8,000 -120 Level Memphis Center
05:15PM 34.5133 -88.7919 304° West 95 109 7,800 -300 Descending Memphis Center
05:16PM 34.5283 -88.8219 301° West 95 109 7,500 -300 Descending Memphis Center
05:17PM 34.5433 -88.8519 301° West 101 116 7,200 -360 Descending Memphis Center
05:18PM 34.5625 -88.8842 306° West 101 116 6,800 -420 Descending Memphis Center
05:19PM 34.5775 -88.9169 299° West 106 122 6,400 -420 Descending Memphis Center
05:20PM 34.5925 -88.9469 301° West 106 122 6,000 -240 Descending Memphis Center
05:21PM 34.6011 -88.9769 289° West 106 122 6,000  Level Memphis Center
05:22PM 34.6139 -89.0069 297° West 101 116 6,000  Level Memphis Center
05:23PM 34.6269 -89.0372 298° West 101 116 6,000  Level Memphis Center
05:24PM 34.6375 -89.0672 293° West 101 116 6,000  Level Memphis Center
05:25PM 34.6483 -89.0975 294° West 101 116 6,000  Level Memphis Center
05:26PM 34.6569 -89.1250 291° West 101 116 6,000  Level Memphis Center
05:27PM 34.6697 -89.1550 297° West 95 109 6,000  Level Memphis Center
05:28PM 34.6847 -89.1828 303° West 95 109 6,000  Level Memphis Center
05:29PM 34.6953 -89.2128 293° West 95 109 6,000  Level Memphis Center
05:30PM 34.7081 -89.2406 299° West 95 109 6,000  Level Memphis Center
05:31PM 34.7208 -89.2681 299° West 95 109 6,000  Level Memphis Center
05:32PM 34.7356 -89.2933 305° West 100 115 6,000 -120 Level Memphis Center
05:33PM 34.7589 -89.3181 319° Northwest 93 107 5,800 -300 Descending Memphis Center
05:34PM 34.7800 -89.3406 319° Northwest 98 113 5,400 -420 Descending Memphis Center
05:35PM 34.8031 -89.3656 318° Northwest 98 113 5,000 -360 Descending Memphis Center
05:36PM 34.8242 -89.3908 315° West 105 121 4,700 -360 Descending Memphis Center
05:37PM 34.8494 -89.4158 321° Northwest 111 128 4,300 -360 Descending Memphis Center
05:38PM 34.8703 -89.4408 315° West 116 133 4,000 -180 Descending Memphis Center
05:39PM 34.8956 -89.4633 324° Northwest 116 133 4,000  Level Memphis Center
05:42PM 34.9500 -89.5167 321° Northwest 106 122 4,000  Level KMEM
05:43PM 34.9500 -89.5500 270° West 106 122 4,000  Level KMEM
05:44PM 34.9667 -89.5833 301° West 109 125 4,000  Level KMEM
05:45PM 34.9667 -89.6167 270° West 103 119 4,000  Level KMEM
05:45PM 34.9833 -89.6500 301° West 103 119 4,000  Level KMEM
05:47PM 34.9833 -89.6833 270° West 100 115 4,000  Level KMEM
05:48PM 35.0000 -89.7167 301° West 95 109 4,000 -180 Level KMEM
05:49PM 35.0000 -89.7500 270° West 105 121 3,700 -300 Descending KMEM
05:50PM 35.0167 -89.7833 301° West 114 131 3,400 -300 Descending KMEM
05:51PM 35.0333 -89.8167 301° West 112 129 3,100 -240 Descending KMEM
05:52PM 35.0333 -89.8500 270° West 105 121 3,000 -60 Descending KMEM
05:53PM 35.0500 -89.8833 301° West 104 120 3,000  Level KMEM
05:54PM 35.0500 -89.9167 270° West 105 121 3,000  Level KMEM
05:55PM 35.0667 -89.9500 301° West 103 119 3,000  Level KMEM
05:56PM 35.0667 -89.9833 270° West 105 121 3,000  Level KMEM
05:57PM 35.0833 -90.0167 301° West 103 119 3,000 -300 Level KMEM
05:58PM 35.1000 -90.0500 301° West 110 127 2,500 -480 Descending KMEM
05:58PM 35.1000 -90.0667 270° West 113 130 2,200 -420 Descending KMEM
05:59PM 35.1167 -90.1000 301° West 111 128 1,800 -420 Descending KMEM